Time;durP1;ratioP1;P1;durP2;ratioP2;P2;SDS_P1;SDS_P2;PMS_P1;PMS_P2;Temp;Humidity;BMP_temperature;BMP_pressure;BME280_temperature;BME280_humidity;BME280_pressure;Samples;Min_cycle;Max_cycle;Signal;HPM_P1;HPM_P2
2023/03/22 00:00:50;;;;;;;9.68;5.43;;;12.90;99.90;;;;;;4143920;28;20029;-72
2023/03/22 00:02:50;;;;;;;13.30;5.53;;;12.90;99.90;;;;;;4131802;28;20441;-71
2023/03/22 00:04:51;;;;;;;12.25;5.50;;;12.90;99.90;;;;;;4131267;28;20133;-69
2023/03/22 00:06:52;;;;;;;11.30;6.00;;;12.90;99.90;;;;;;4131957;28;20494;-71
2023/03/22 00:08:53;;;;;;;10.32;4.85;;;12.90;99.90;;;;;;4129594;28;20045;-72
2023/03/22 00:10:53;;;;;;;8.98;5.40;;;12.90;99.90;;;;;;4132623;28;20046;-71
2023/03/22 00:12:54;;;;;;;9.98;5.55;;;12.90;99.90;;;;;;4130871;28;20038;-71
2023/03/22 00:14:55;;;;;;;12.98;6.05;;;12.90;99.90;;;;;;4132390;28;20117;-72
2023/03/22 00:16:56;;;;;;;10.07;6.03;;;12.80;99.90;;;;;;4129950;28;20030;-71
2023/03/22 00:18:56;;;;;;;10.95;6.20;;;12.80;99.90;;;;;;4133753;28;20081;-72
2023/03/22 00:20:58;;;;;;;13.00;7.22;;;12.80;99.90;;;;;;4131071;28;20069;-71
2023/03/22 00:22:59;;;;;;;13.52;6.72;;;12.80;99.90;;;;;;4134065;28;20038;-71
2023/03/22 00:25:00;;;;;;;10.65;6.50;;;12.80;99.90;;;;;;4133123;28;20050;-72
2023/03/22 00:27:00;;;;;;;12.57;6.05;;;12.80;99.90;;;;;;4139179;28;20498;-71
2023/03/22 00:29:01;;;;;;;9.38;5.57;;;12.80;99.90;;;;;;4132650;28;20375;-72
2023/03/22 00:31:02;;;;;;;13.55;6.55;;;12.80;99.90;;;;;;4136722;28;20377;-72
2023/03/22 00:33:03;;;;;;;11.85;6.07;;;12.80;99.90;;;;;;4130289;28;20034;-72
2023/03/22 00:35:05;;;;;;;10.82;6.32;;;12.80;99.90;;;;;;4136521;28;20558;-72
2023/03/22 00:37:06;;;;;;;12.80;6.93;;;12.80;99.90;;;;;;4132115;28;20045;-68
2023/03/22 00:39:07;;;;;;;10.43;6.28;;;12.80;99.90;;;;;;4134512;28;20069;-71
2023/03/22 00:41:20;;;;;;;9.15;5.75;;;12.80;99.90;;;;;;4138075;28;20512;-71
2023/03/22 00:43:20;;;;;;;10.15;5.90;;;12.80;99.90;;;;;;4125835;28;20037;-72
2023/03/22 00:45:21;;;;;;;11.27;6.35;;;12.80;99.90;;;;;;4132451;28;20125;-72
2023/03/22 00:47:22;;;;;;;10.10;5.68;;;12.80;99.90;;;;;;4135366;28;20043;-68
2023/03/22 00:49:24;;;;;;;8.95;6.00;;;12.80;99.90;;;;;;4133127;28;20088;-71
2023/03/22 00:51:24;;;;;;;13.63;6.55;;;12.80;99.90;;;;;;4132540;28;20045;-71
2023/03/22 00:53:27;;;;;;;9.13;5.50;;;12.80;99.90;;;;;;4138245;28;20393;-71
2023/03/22 00:55:28;;;;;;;9.13;5.63;;;12.80;99.90;;;;;;4130737;28;20117;-72
2023/03/22 00:57:29;;;;;;;9.95;6.22;;;12.70;99.90;;;;;;4135176;28;20493;-71
2023/03/22 00:59:29;;;;;;;9.27;6.00;;;12.70;99.90;;;;;;4128464;28;20061;-72
2023/03/22 01:01:30;;;;;;;12.10;6.53;;;12.70;99.90;;;;;;4128879;28;20034;-72
2023/03/22 01:03:32;;;;;;;7.28;5.53;;;12.70;99.90;;;;;;4131670;28;20030;-72
2023/03/22 01:05:33;;;;;;;10.85;6.05;;;12.80;99.90;;;;;;4138545;28;20104;-72
2023/03/22 01:07:37;;;;;;;9.77;6.13;;;12.80;99.90;;;;;;4128077;28;20030;-72
2023/03/22 01:09:37;;;;;;;9.93;5.78;;;12.70;99.90;;;;;;4133149;28;20029;-71
2023/03/22 01:11:38;;;;;;;12.50;5.32;;;12.70;99.90;;;;;;4127952;28;20042;-72
2023/03/22 01:13:40;;;;;;;11.73;6.32;;;12.80;99.90;;;;;;4137425;28;20485;-71
2023/03/22 01:15:41;;;;;;;8.93;5.22;;;12.70;99.90;;;;;;4129923;28;20037;-71
2023/03/22 01:17:42;;;;;;;10.63;6.10;;;12.70;99.90;;;;;;4140534;28;20048;-71
2023/03/22 01:19:42;;;;;;;9.85;5.97;;;12.70;99.90;;;;;;4127707;28;20058;-71
2023/03/22 01:21:43;;;;;;;10.65;6.40;;;12.70;99.90;;;;;;4130291;28;20065;-72
2023/03/22 01:23:44;;;;;;;10.00;6.13;;;12.60;99.90;;;;;;4131357;28;20487;-71
2023/03/22 01:25:45;;;;;;;8.18;5.70;;;12.60;99.90;;;;;;4134386;28;20030;-72
2023/03/22 01:27:46;;;;;;;9.38;5.80;;;12.60;99.90;;;;;;4129087;28;20041;-71
2023/03/22 01:29:46;;;;;;;8.88;5.95;;;12.60;99.90;;;;;;4136424;28;20029;-72
2023/03/22 01:31:47;;;;;;;11.82;6.20;;;12.60;99.90;;;;;;4128269;28;20564;-72
2023/03/22 01:33:47;;;;;;;6.90;5.07;;;12.60;99.90;;;;;;4135507;28;20038;-71
2023/03/22 01:35:48;;;;;;;8.15;5.82;;;12.60;99.90;;;;;;4133603;28;20068;-71
2023/03/22 01:37:48;;;;;;;10.02;6.07;;;12.60;99.90;;;;;;4135150;28;20030;-71
2023/03/22 01:39:49;;;;;;;11.68;6.68;;;12.50;99.90;;;;;;4132533;28;20030;-72
2023/03/22 01:41:49;;;;;;;10.73;6.15;;;12.60;99.90;;;;;;4134577;28;20045;-72
2023/03/22 01:44:12;;;;;;;11.45;6.15;;;12.50;99.90;;;;;;4139552;28;20032;-72
2023/03/22 01:46:12;;;;;;;11.10;6.53;;;12.50;99.90;;;;;;4130717;28;20053;-71
2023/03/22 01:48:16;;;;;;;10.30;6.78;;;12.50;99.90;;;;;;4125000;28;20031;-72
2023/03/22 01:50:17;;;;;;;11.00;6.30;;;12.40;99.90;;;;;;4130625;28;20037;-72
2023/03/22 01:52:18;;;;;;;10.02;6.15;;;12.40;99.90;;;;;;4134675;28;20030;-72
2023/03/22 01:54:24;;;;;;;10.77;7.22;;;12.40;99.90;;;;;;4129979;28;20482;-71
2023/03/22 01:56:29;;;;;;;10.00;6.45;;;12.40;99.90;;;;;;4127560;28;20037;-71
2023/03/22 01:58:31;;;;;;;11.43;6.65;;;12.40;99.90;;;;;;4137771;28;20086;-71
2023/03/22 02:00:32;;;;;;;8.23;6.20;;;12.30;99.90;;;;;;4131841;28;20619;-72
2023/03/22 02:02:33;;;;;;;10.15;6.05;;;12.30;99.90;;;;;;4130665;28;20047;-72
2023/03/22 02:04:37;;;;;;;7.95;5.90;;;12.30;99.90;;;;;;4131134;28;20052;-72
2023/03/22 02:06:38;;;;;;;8.35;6.18;;;12.20;99.90;;;;;;4128547;28;20029;-70
2023/03/22 02:08:42;;;;;;;11.80;5.93;;;12.20;99.90;;;;;;4130538;28;20036;-72
2023/03/22 02:10:42;;;;;;;14.23;6.68;;;12.20;99.90;;;;;;4130091;28;20117;-72
2023/03/22 02:12:53;;;;;;;9.43;6.28;;;12.20;99.90;;;;;;4129877;28;20505;-72
2023/03/22 02:15:08;;;;;;;9.35;6.38;;;12.20;99.90;;;;;;4133748;28;20544;-71
2023/03/22 02:17:09;;;;;;;9.15;6.13;;;12.10;99.90;;;;;;4128702;28;20359;-71
2023/03/22 02:19:46;;;;;;;10.20;7.05;;;12.10;99.90;;;;;;4141496;28;20080;-71
2023/03/22 02:22:13;;;;;;;9.55;6.03;;;12.00;99.90;;;;;;4129548;28;20540;-71
2023/03/22 02:24:47;;;;;;;7.32;5.60;;;12.00;99.90;;;;;;4131175;28;20385;-72
2023/03/22 02:27:17;;;;;;;10.45;6.30;;;12.00;99.90;;;;;;4132981;28;20371;-72
2023/03/22 02:29:21;;;;;;;11.70;6.55;;;11.90;99.90;;;;;;4123756;28;20049;-72
2023/03/22 02:31:44;;;;;;;8.30;5.82;;;11.90;99.90;;;;;;4137113;28;20076;-71
2023/03/22 02:34:19;;;;;;;9.85;5.80;;;11.80;99.90;;;;;;4131997;28;20034;-72
2023/03/22 02:36:29;;;;;;;8.80;5.80;;;11.80;99.90;;;;;;4126910;28;20036;-72
2023/03/22 02:38:30;;;;;;;10.57;6.18;;;11.80;99.90;;;;;;4133694;28;20500;-73
2023/03/22 02:40:41;;;;;;;10.32;6.13;;;11.80;99.90;;;;;;4132814;28;20030;-71
2023/03/22 02:43:20;;;;;;;8.35;5.35;;;11.80;99.90;;;;;;4132437;28;20508;-72
2023/03/22 02:45:40;;;;;;;9.98;5.38;;;11.80;99.90;;;;;;4128587;28;20489;-72
2023/03/22 02:48:12;;;;;;;8.13;5.95;;;11.80;99.90;;;;;;4127238;28;20035;-71
2023/03/22 02:50:31;;;;;;;9.77;6.05;;;11.70;99.90;;;;;;4132435;28;20060;-72
2023/03/22 02:52:50;;;;;;;10.32;6.03;;;11.80;99.90;;;;;;4135655;28;20027;-72
2023/03/22 02:55:10;;;;;;;10.52;5.68;;;11.70;99.90;;;;;;4129154;28;20023;-72
2023/03/22 02:57:21;;;;;;;8.45;5.55;;;11.70;99.90;;;;;;4128160;28;20389;-71
2023/03/22 02:59:24;;;;;;;9.88;5.43;;;11.70;99.90;;;;;;4136326;28;20081;-72
2023/03/22 03:01:28;;;;;;;8.48;5.05;;;11.70;99.90;;;;;;4132267;28;20506;-70
2023/03/22 03:03:31;;;;;;;13.80;5.93;;;11.60;99.90;;;;;;4130840;28;20034;-71
2023/03/22 03:05:33;;;;;;;13.23;4.88;;;11.70;99.90;;;;;;4129585;28;20045;-71
2023/03/22 03:07:33;;;;;;;9.88;5.43;;;11.70;99.90;;;;;;4132256;28;20042;-72
2023/03/22 03:09:36;;;;;;;9.15;5.72;;;11.70;99.90;;;;;;4127511;28;20477;-71
2023/03/22 03:11:37;;;;;;;;;;;11.60;99.90;;;;;;4130637;28;20053;-71
2023/03/22 03:13:37;;;;;;;9.40;5.40;;;11.60;99.90;;;;;;4130794;28;19961;-72
2023/03/22 03:15:42;;;;;;;9.43;5.45;;;11.60;99.90;;;;;;4130520;28;20054;-70
2023/03/22 03:18:12;;;;;;;10.35;5.35;;;11.60;99.90;;;;;;4129129;28;20046;-71
2023/03/22 03:20:51;;;;;;;10.88;5.15;;;11.50;99.90;;;;;;4126896;28;20037;-72
2023/03/22 03:23:23;;;;;;;7.63;4.43;;;11.50;99.90;;;;;;4132806;28;20080;-71
2023/03/22 03:25:42;;;;;;;8.38;4.82;;;11.50;99.90;;;;;;4134974;28;20497;-71
2023/03/22 03:28:21;;;;;;;5.85;4.20;;;11.50;99.90;;;;;;4132283;28;20406;-71
2023/03/22 03:30:29;;;;;;;10.40;5.38;;;11.60;99.90;;;;;;4129002;28;20184;-72
2023/03/22 03:32:54;;;;;;;9.70;4.93;;;11.50;99.90;;;;;;4147487;28;20079;-71
2023/03/22 03:35:00;;;;;;;8.63;4.90;;;11.50;99.90;;;;;;4131571;28;20030;-71
2023/03/22 03:37:23;;;;;;;7.38;4.90;;;11.50;99.90;;;;;;4136751;28;20502;-71
2023/03/22 03:39:27;;;;;;;6.47;4.20;;;11.50;99.90;;;;;;4130571;28;20568;-71
2023/03/22 03:41:30;;;;;;;6.95;4.78;;;11.50;99.90;;;;;;4136546;28;20552;-72
2023/03/22 03:43:32;;;;;;;9.18;4.32;;;11.50;99.90;;;;;;4133484;28;20478;-71
2023/03/22 03:45:34;;;;;;;8.07;4.82;;;11.50;99.90;;;;;;4134943;28;20018;-71
2023/03/22 03:47:35;;;;;;;7.07;4.40;;;11.50;99.90;;;;;;4133256;28;20486;-71
2023/03/22 03:49:36;;;;;;;6.68;4.10;;;11.50;99.90;;;;;;4132691;28;20033;-72
2023/03/22 03:51:52;;;;;;;9.73;4.70;;;11.40;99.90;;;;;;4128955;28;20545;-71
2023/03/22 03:53:53;;;;;;;7.45;4.13;;;11.40;99.90;;;;;;4135552;28;20030;-72
2023/03/22 03:55:54;;;;;;;8.23;4.60;;;11.30;99.90;;;;;;4133375;28;20558;-71
2023/03/22 03:57:54;;;;;;;6.82;4.00;;;11.30;99.90;;;;;;4134964;28;20573;-69
2023/03/22 03:59:55;;;;;;;7.43;4.43;;;11.30;99.90;;;;;;4131828;28;20393;-70
2023/03/22 04:01:55;;;;;;;8.45;3.80;;;11.30;99.90;;;;;;4134191;28;20481;-70
2023/03/22 04:03:56;;;;;;;6.47;4.00;;;11.30;99.90;;;;;;4132480;28;20070;-71
2023/03/22 04:05:58;;;;;;;5.40;4.03;;;11.30;99.90;;;;;;4136114;28;20121;-71
2023/03/22 04:07:59;;;;;;;8.82;4.75;;;11.30;99.90;;;;;;4134587;28;20045;-71
2023/03/22 04:10:00;;;;;;;8.30;4.40;;;11.30;99.90;;;;;;4132308;28;20030;-72
2023/03/22 04:12:01;;;;;;;7.10;4.00;;;11.30;99.90;;;;;;4136112;28;20049;-72
2023/03/22 04:14:01;;;;;;;8.07;4.10;;;11.30;99.90;;;;;;4138170;28;20082;-72
2023/03/22 04:16:02;;;;;;;6.65;3.78;;;11.20;99.90;;;;;;4133231;28;20031;-72
2023/03/22 04:18:03;;;;;;;6.60;4.03;;;11.20;99.90;;;;;;4140326;28;20053;-71
2023/03/22 04:20:05;;;;;;;6.50;3.65;;;11.20;99.90;;;;;;4133271;28;20034;-72
2023/03/22 04:22:05;;;;;;;5.45;3.60;;;11.20;99.90;;;;;;4134794;28;20125;-72
2023/03/22 04:24:07;;;;;;;7.07;3.88;;;11.20;99.90;;;;;;4133005;28;20055;-72
2023/03/22 04:26:07;;;;;;;8.73;4.18;;;11.20;99.90;;;;;;4130841;28;20034;-72
2023/03/22 04:28:08;;;;;;;6.13;3.83;;;11.20;99.90;;;;;;4135119;28;20044;-72
2023/03/22 04:30:18;;;;;;;6.72;3.63;;;11.20;99.90;;;;;;4130634;28;20046;-72
2023/03/22 04:32:23;;;;;;;5.05;3.30;;;11.20;99.90;;;;;;4133593;28;20517;-72
2023/03/22 04:34:25;;;;;;;6.00;3.70;;;11.20;99.90;;;;;;4135912;28;20034;-72
2023/03/22 04:36:30;;;;;;;6.45;3.33;;;11.20;99.90;;;;;;4134375;28;20113;-71
2023/03/22 04:38:30;;;;;;;6.45;3.40;;;11.20;99.90;;;;;;4132501;28;20093;-72
2023/03/22 04:40:35;;;;;;;9.00;3.92;;;11.20;99.90;;;;;;4131722;28;20043;-71
2023/03/22 04:42:35;;;;;;;7.05;3.67;;;11.20;99.90;;;;;;4134605;28;20022;-71
2023/03/22 04:44:36;;;;;;;6.60;3.33;;;11.10;99.90;;;;;;4138625;28;20033;-71
2023/03/22 04:46:37;;;;;;;8.80;3.40;;;11.10;99.90;;;;;;4133397;28;20050;-71
2023/03/22 04:48:41;;;;;;;6.78;3.30;;;11.10;99.90;;;;;;4130999;28;20031;-72
2023/03/22 04:50:41;;;;;;;6.70;3.85;;;11.10;99.90;;;;;;4131473;28;20388;-71
2023/03/22 04:52:42;;;;;;;5.93;3.80;;;11.00;99.90;;;;;;4135147;28;20035;-71
2023/03/22 04:54:42;;;;;;;4.90;3.20;;;11.00;99.90;;;;;;4132582;28;20042;-71
2023/03/22 04:56:43;;;;;;;5.40;3.10;;;11.10;99.90;;;;;;4132559;28;20093;-71
2023/03/22 04:58:45;;;;;;;6.00;3.28;;;11.10;99.90;;;;;;4131984;28;20493;-71
2023/03/22 05:00:47;;;;;;;6.70;3.60;;;11.10;99.90;;;;;;4134697;28;20033;-72
2023/03/22 05:02:48;;;;;;;8.30;3.40;;;11.10;99.90;;;;;;4133044;28;20033;-72
2023/03/22 05:04:49;;;;;;;7.47;3.20;;;11.10;99.90;;;;;;4131874;28;20498;-72
2023/03/22 05:06:49;;;;;;;9.88;3.22;;;11.00;99.90;;;;;;4132470;28;20026;-71
2023/03/22 05:08:50;;;;;;;7.63;3.53;;;11.10;99.90;;;;;;4132793;28;20042;-72
2023/03/22 05:10:52;;;;;;;9.20;3.25;;;11.10;99.90;;;;;;4133930;28;20561;-72
2023/03/22 05:12:52;;;;;;;6.28;3.22;;;11.10;99.90;;;;;;4136646;28;20033;-71
2023/03/22 05:14:53;;;;;;;9.02;3.42;;;11.10;99.90;;;;;;4137792;28;20034;-72
2023/03/22 05:16:54;;;;;;;5.63;2.97;;;11.10;99.90;;;;;;4131090;28;20065;-72
2023/03/22 05:18:55;;;;;;;4.22;2.80;;;11.10;99.90;;;;;;4130898;28;20037;-72
2023/03/22 05:20:56;;;;;;;6.85;3.17;;;11.10;99.90;;;;;;4130957;28;20037;-70
2023/03/22 05:22:56;;;;;;;5.93;2.85;;;11.10;99.90;;;;;;4135016;28;20030;-71
2023/03/22 05:24:57;;;;;;;7.65;3.15;;;11.10;99.90;;;;;;4133533;28;20506;-70
2023/03/22 05:26:59;;;;;;;8.30;3.08;;;11.10;99.90;;;;;;4130613;28;20501;-71
2023/03/22 05:29:00;;;;;;;12.13;3.30;;;11.10;99.90;;;;;;4134871;28;20952;-72
2023/03/22 05:31:01;;;;;;;8.00;3.17;;;11.10;99.90;;;;;;4131562;28;20041;-71
2023/03/22 05:33:03;;;;;;;4.63;2.58;;;11.10;99.90;;;;;;4137456;28;20130;-72
2023/03/22 05:35:05;;;;;;;6.80;2.72;;;11.00;99.90;;;;;;4133311;28;20061;-72
2023/03/22 05:37:05;;;;;;;6.77;2.70;;;11.10;99.90;;;;;;4134022;28;20026;-72
2023/03/22 05:39:06;;;;;;;3.78;2.33;;;11.10;99.90;;;;;;4131011;28;20026;-72
2023/03/22 05:41:07;;;;;;;9.05;3.33;;;11.10;99.90;;;;;;4135541;28;20109;-71
2023/03/22 05:43:08;;;;;;;6.57;3.25;;;11.10;99.90;;;;;;4134296;28;20026;-72
2023/03/22 05:45:09;;;;;;;6.30;3.00;;;11.10;99.90;;;;;;4129553;28;20034;-71
2023/03/22 05:47:10;;;;;;;9.18;3.17;;;11.10;99.90;;;;;;4137663;28;20034;-71
2023/03/22 05:49:10;;;;;;;7.13;2.95;;;11.00;99.90;;;;;;4135231;28;20041;-71
2023/03/22 05:51:16;;;;;;;8.80;2.97;;;11.10;99.90;;;;;;4128379;28;20074;-66
2023/03/22 05:53:16;;;;;;;7.72;2.90;;;11.10;99.90;;;;;;4130429;28;20395;-71
2023/03/22 05:55:17;;;;;;;5.75;2.65;;;11.10;99.90;;;;;;4125225;28;20066;-71
2023/03/22 05:57:18;;;;;;;8.25;3.22;;;11.10;99.90;;;;;;4132557;28;20057;-72
2023/03/22 05:59:19;;;;;;;6.85;3.30;;;11.10;99.90;;;;;;4133101;28;20188;-72
2023/03/22 06:01:20;;;;;;;7.35;3.22;;;11.10;99.90;;;;;;4128713;28;20038;-72
2023/03/22 06:03:21;;;;;;;6.82;3.63;;;11.20;99.90;;;;;;4129707;28;20030;-71
2023/03/22 06:05:22;;;;;;;8.43;3.40;;;11.10;99.90;;;;;;4128405;28;20054;-71
2023/03/22 06:07:23;;;;;;;8.00;3.03;;;11.10;99.90;;;;;;4130311;28;20489;-72
2023/03/22 06:09:23;;;;;;;8.43;3.05;;;11.10;99.90;;;;;;4129703;28;20049;-71
2023/03/22 06:11:24;;;;;;;9.40;3.78;;;11.10;99.90;;;;;;4129191;28;20051;-71
2023/03/22 06:13:25;;;;;;;6.05;2.97;;;11.10;99.90;;;;;;4131330;28;20034;-72
2023/03/22 06:15:25;;;;;;;4.88;2.88;;;11.10;99.90;;;;;;4134856;28;20592;-72
2023/03/22 06:17:26;;;;;;;7.10;3.03;;;11.10;99.90;;;;;;4130016;28;20066;-72
2023/03/22 06:19:27;;;;;;;6.40;3.08;;;11.20;99.90;;;;;;4133057;28;20034;-68
2023/03/22 06:21:27;;;;;;;7.75;3.58;;;11.10;99.90;;;;;;4129211;28;20038;-71
2023/03/22 06:23:28;;;;;;;6.50;3.42;;;11.20;99.90;;;;;;4127075;28;20117;-71
2023/03/22 06:25:28;;;;;;;9.10;3.17;;;11.10;99.90;;;;;;4128062;28;20042;-72
2023/03/22 06:27:29;;;;;;;7.82;2.92;;;11.20;99.90;;;;;;4132674;28;20049;-71
2023/03/22 06:29:30;;;;;;;8.85;3.55;;;11.20;99.90;;;;;;4131074;28;20038;-71
2023/03/22 06:31:30;;;;;;;7.80;3.10;;;11.20;99.90;;;;;;4129658;28;20544;-72
2023/03/22 06:33:31;;;;;;;7.28;3.03;;;11.20;99.90;;;;;;4129408;28;20044;-72
2023/03/22 06:35:32;;;;;;;7.75;3.20;;;11.20;99.90;;;;;;4128836;28;20065;-71
2023/03/22 06:37:33;;;;;;;10.13;3.45;;;11.20;99.90;;;;;;4129839;28;20121;-71
2023/03/22 06:39:34;;;;;;;8.73;3.30;;;11.30;99.90;;;;;;4129025;28;20022;-71
2023/03/22 06:41:34;;;;;;;12.70;3.00;;;11.30;99.90;;;;;;4131424;28;20030;-71
2023/03/22 06:43:35;;;;;;;5.32;2.90;;;11.30;99.90;;;;;;4130978;28;20137;-72
2023/03/22 06:45:35;;;;;;;10.93;3.47;;;11.30;99.90;;;;;;4130670;28;20030;-71
2023/03/22 06:47:36;;;;;;;7.97;2.90;;;11.40;99.90;;;;;;4128352;28;20192;-72
2023/03/22 06:49:37;;;;;;;8.57;2.58;;;11.40;99.90;;;;;;4128089;28;20105;-72
2023/03/22 06:51:38;;;;;;;8.10;2.75;;;11.50;99.90;;;;;;4123884;28;20037;-71
2023/03/22 06:53:38;;;;;;;5.90;2.60;;;11.40;99.90;;;;;;4130383;28;20022;-72
2023/03/22 06:55:39;;;;;;;8.73;3.10;;;11.50;99.90;;;;;;4137432;28;20034;-71
2023/03/22 06:57:40;;;;;;;7.45;2.40;;;11.50;99.90;;;;;;4131110;28;20031;-75
2023/03/22 06:59:40;;;;;;;6.20;2.50;;;11.50;99.90;;;;;;4135411;28;20038;-68
2023/03/22 07:01:41;;;;;;;11.52;2.95;;;11.60;99.90;;;;;;4132038;28;20038;-72
2023/03/22 07:03:41;;;;;;;7.30;2.22;;;11.60;99.90;;;;;;4140897;28;20032;-72
2023/03/22 07:05:42;;;;;;;10.48;2.90;;;11.60;99.90;;;;;;4135968;28;20511;-72
2023/03/22 07:07:42;;;;;;;7.40;2.58;;;11.60;99.90;;;;;;4138132;28;20030;-72
2023/03/22 07:09:43;;;;;;;8.98;2.78;;;11.70;99.90;;;;;;4136257;28;20038;-73
2023/03/22 07:11:44;;;;;;;7.30;2.22;;;11.70;99.90;;;;;;4134727;28;20083;-69
2023/03/22 07:13:44;;;;;;;5.35;2.28;;;11.80;99.90;;;;;;4136514;28;20058;-71
2023/03/22 07:15:45;;;;;;;8.27;2.50;;;11.80;99.90;;;;;;4135574;28;20080;-71
2023/03/22 07:17:46;;;;;;;5.53;1.98;;;11.90;99.90;;;;;;4133175;28;20064;-72
2023/03/22 07:19:46;;;;;;;5.78;2.13;;;11.90;99.90;;;;;;4133802;28;20073;-72
2023/03/22 07:21:47;;;;;;;5.60;2.33;;;11.90;99.90;;;;;;4132969;28;20034;-71
2023/03/22 07:23:48;;;;;;;6.13;2.80;;;12.00;99.90;;;;;;4135568;28;20117;-72
2023/03/22 07:25:48;;;;;;;6.40;2.63;;;12.00;99.90;;;;;;4133495;28;20046;-72
2023/03/22 07:27:49;;;;;;;11.02;2.80;;;12.00;99.90;;;;;;4137858;28;20057;-72
2023/03/22 07:29:49;;;;;;;11.00;2.50;;;12.00;99.90;;;;;;4145852;28;20030;-72
2023/03/22 07:31:50;;;;;;;9.20;2.92;;;12.00;99.90;;;;;;4131761;28;20075;-72
2023/03/22 07:33:51;;;;;;;7.20;1.75;;;12.00;99.90;;;;;;4132664;28;20114;-72
2023/03/22 07:35:51;;;;;;;10.25;2.53;;;12.00;99.90;;;;;;4135345;28;20033;-72
2023/03/22 07:37:52;;;;;;;8.70;2.20;;;12.00;99.90;;;;;;4130976;28;20138;-73
2023/03/22 07:39:52;;;;;;;6.78;2.13;;;12.00;99.90;;;;;;4132843;28;20030;-72
2023/03/22 07:41:54;;;;;;;7.28;2.17;;;12.00;99.90;;;;;;4131470;28;20113;-72
2023/03/22 07:43:54;;;;;;;8.48;2.53;;;12.00;99.90;;;;;;4134161;28;20126;-72
2023/03/22 07:45:55;;;;;;;5.53;2.28;;;12.00;99.90;;;;;;4129199;28;20031;-72
2023/03/22 07:47:55;;;;;;;6.90;2.13;;;11.90;99.90;;;;;;4135982;28;20402;-72
2023/03/22 07:49:56;;;;;;;5.90;1.92;;;12.00;99.90;;;;;;4136828;28;20473;-73
2023/03/22 07:51:57;;;;;;;8.13;2.55;;;11.90;99.90;;;;;;4130833;28;20030;-72
2023/03/22 07:53:57;;;;;;;6.70;2.00;;;12.00;99.90;;;;;;4132226;28;20030;-73
2023/03/22 07:55:58;;;;;;;7.47;2.50;;;12.00;99.90;;;;;;4132073;28;20065;-72
2023/03/22 07:57:58;;;;;;;4.93;2.03;;;12.00;99.90;;;;;;4131911;28;20035;-72
2023/03/22 07:59:59;;;;;;;4.70;1.73;;;12.00;99.90;;;;;;4132545;28;20481;-70
2023/03/22 08:02:00;;;;;;;7.15;1.95;;;12.00;99.90;;;;;;4132486;28;20394;-71
2023/03/22 08:04:00;;;;;;;5.70;1.60;;;12.00;99.90;;;;;;4127954;28;20528;-73
2023/03/22 08:06:06;;;;;;;5.57;1.58;;;12.10;99.90;;;;;;4150286;28;20033;-71
2023/03/22 08:08:07;;;;;;;6.72;2.13;;;12.10;99.90;;;;;;4132252;28;20060;-72
2023/03/22 08:10:08;;;;;;;7.47;2.15;;;12.10;99.90;;;;;;4129851;28;20402;-72
2023/03/22 08:12:08;;;;;;;6.25;1.73;;;12.10;99.90;;;;;;4134483;28;20039;-72
2023/03/22 08:14:09;;;;;;;9.18;2.20;;;12.20;99.90;;;;;;4133741;28;20064;-73
2023/03/22 08:16:10;;;;;;;8.55;2.35;;;12.20;99.90;;;;;;4129691;28;20393;-72
2023/03/22 08:18:10;;;;;;;9.05;1.73;;;12.20;99.90;;;;;;4133725;28;20401;-72
2023/03/22 08:20:11;;;;;;;8.57;2.20;;;12.20;99.90;;;;;;4129906;28;20041;-71
2023/03/22 08:22:12;;;;;;;4.60;1.90;;;12.20;99.90;;;;;;4133548;28;20497;-72
2023/03/22 08:24:13;;;;;;;6.03;1.95;;;12.20;99.90;;;;;;4134017;28;20100;-72
2023/03/22 08:26:13;;;;;;;6.25;1.98;;;12.20;99.90;;;;;;4133920;28;20030;-72
2023/03/22 08:28:14;;;;;;;5.35;1.88;;;12.20;99.90;;;;;;4135414;28;20030;-72
2023/03/22 08:30:18;;;;;;;5.53;1.92;;;12.30;99.90;;;;;;4131590;28;20030;-72
2023/03/22 08:32:19;;;;;;;5.97;1.90;;;12.30;99.90;;;;;;4132700;28;22488;-73
2023/03/22 08:34:19;;;;;;;5.05;2.00;;;12.30;99.90;;;;;;4132913;28;20505;-72
2023/03/22 08:36:24;;;;;;;5.85;1.77;;;12.30;99.90;;;;;;4129452;28;20050;-72
2023/03/22 08:38:25;;;;;;;5.93;1.83;;;12.20;99.90;;;;;;4134969;28;20038;-73
2023/03/22 08:40:25;;;;;;;4.57;1.88;;;12.30;99.90;;;;;;4131406;28;20391;-73
2023/03/22 08:42:26;;;;;;;5.63;1.60;;;12.30;99.90;;;;;;4132482;28;20081;-73
2023/03/22 08:44:27;;;;;;;6.28;1.70;;;12.30;99.90;;;;;;4130491;28;20054;-72
2023/03/22 08:46:27;;;;;;;9.63;2.42;;;12.30;99.90;;;;;;4146556;28;20121;-73
2023/03/22 08:48:29;;;;;;;5.25;1.85;;;12.30;99.90;;;;;;4136218;28;20031;-72
2023/03/22 08:50:33;;;;;;;6.40;1.90;;;12.30;99.90;;;;;;4128939;28;20039;-73
2023/03/22 08:52:33;;;;;;;6.93;2.03;;;12.40;99.90;;;;;;4130389;28;20031;-73
2023/03/22 08:54:34;;;;;;;6.63;1.73;;;12.40;99.90;;;;;;4129833;28;22856;-73
2023/03/22 08:56:36;;;;;;;9.00;1.95;;;12.40;99.90;;;;;;4130479;28;20030;-72
2023/03/22 08:58:37;;;;;;;5.68;2.15;;;12.40;99.90;;;;;;4132595;28;20145;-73
2023/03/22 09:00:38;;;;;;;8.48;2.03;;;12.50;99.90;;;;;;4130809;28;20505;-72
2023/03/22 09:02:38;;;;;;;4.25;1.60;;;12.50;99.90;;;;;;4132133;28;20117;-72
2023/03/22 09:04:39;;;;;;;7.10;1.75;;;12.60;99.90;;;;;;4132046;28;20053;-73
2023/03/22 09:06:43;;;;;;;3.78;1.40;;;12.60;99.90;;;;;;4134916;28;20018;-73
2023/03/22 09:08:43;;;;;;;5.18;1.85;;;12.60;99.90;;;;;;4132074;28;20029;-72
2023/03/22 09:10:46;;;;;;;7.40;2.10;;;12.70;99.90;;;;;;4126319;28;20038;-73
2023/03/22 09:12:47;;;;;;;10.48;2.28;;;12.70;99.90;;;;;;4133474;28;20034;-72
2023/03/22 09:14:48;;;;;;;7.03;1.98;;;12.70;99.90;;;;;;4131256;28;20038;-72
2023/03/22 09:16:50;;;;;;;7.53;2.35;;;12.70;99.90;;;;;;4131192;28;21564;-72
2023/03/22 09:18:51;;;;;;;7.03;1.92;;;12.70;99.90;;;;;;4144713;28;20048;-72
2023/03/22 09:20:51;;;;;;;5.72;2.13;;;12.70;99.90;;;;;;4130282;28;20031;-72
2023/03/22 09:22:52;;;;;;;5.10;1.88;;;12.60;99.90;;;;;;4133451;28;20394;-73
2023/03/22 09:24:53;;;;;;;5.55;1.48;;;12.70;99.90;;;;;;4133072;28;20026;-72
2023/03/22 09:26:53;;;;;;;6.53;1.40;;;12.70;99.90;;;;;;4130652;28;20035;-73
2023/03/22 09:28:54;;;;;;;4.20;1.60;;;12.70;99.90;;;;;;4129205;28;20026;-72
2023/03/22 09:31:00;;;;;;;10.80;1.90;;;12.70;99.90;;;;;;4129276;28;20114;-72
2023/03/22 09:33:01;;;;;;;6.22;1.98;;;12.70;99.90;;;;;;4134308;28;20065;-71
2023/03/22 09:35:01;;;;;;;7.07;1.85;;;12.70;99.90;;;;;;4130403;28;20397;-72
2023/03/22 09:37:03;;;;;;;4.13;1.70;;;12.70;99.90;;;;;;4133451;28;20070;-72
2023/03/22 09:39:05;;;;;;;3.88;1.55;;;12.70;99.90;;;;;;4134485;28;20478;-72
2023/03/22 09:41:16;;;;;;;6.68;1.92;;;12.70;99.90;;;;;;4144220;28;20056;-72
2023/03/22 09:43:19;;;;;;;7.28;2.17;;;12.70;99.90;;;;;;4133013;28;20386;-72
2023/03/22 09:45:34;;;;;;;4.55;1.63;;;12.70;99.90;;;;;;4132651;28;20047;-72
2023/03/22 09:47:39;;;;;;;7.70;1.83;;;12.70;99.90;;;;;;4134994;28;20077;-72
2023/03/22 09:49:43;;;;;;;6.65;1.63;;;12.70;99.90;;;;;;4131392;28;20096;-72
2023/03/22 09:51:51;;;;;;;6.88;1.67;;;12.70;99.90;;;;;;4133043;28;20100;-72
2023/03/22 09:53:52;;;;;;;3.95;1.30;;;12.70;99.90;;;;;;4131000;28;20105;-72
2023/03/22 09:55:55;;;;;;;8.13;1.70;;;12.70;99.90;;;;;;4130317;28;20038;-72
2023/03/22 09:58:30;;;;;;;6.97;1.80;;;12.80;99.90;;;;;;4133041;28;20053;-72
2023/03/22 10:00:42;;;;;;;10.10;1.98;;;12.90;99.90;;;;;;4133245;28;20568;-71
2023/03/22 10:02:52;;;;;;;7.50;1.73;;;13.00;99.90;;;;;;4131009;28;20118;-72
2023/03/22 10:04:59;;;;;;;6.63;1.90;;;13.00;99.90;;;;;;4128093;28;20046;-72
2023/03/22 10:07:15;;;;;;;5.28;1.98;;;13.10;99.90;;;;;;4130780;28;20046;-73
2023/03/22 10:09:44;;;;;;;4.97;1.45;;;13.10;99.90;;;;;;4130168;28;20089;-72
2023/03/22 10:11:59;;;;;;;5.88;1.83;;;13.10;99.90;;;;;;4127500;28;20042;-73
2023/03/22 10:14:04;;;;;;;7.10;1.73;;;13.20;99.90;;;;;;4127737;28;20042;-72
2023/03/22 10:16:15;;;;;;;6.85;1.80;;;13.20;99.90;;;;;;4131671;28;20027;-72
2023/03/22 10:18:20;;;;;;;7.50;1.77;;;13.20;99.90;;;;;;4129200;28;20026;-72
2023/03/22 10:20:35;;;;;;;7.95;1.90;;;13.10;99.90;;;;;;4129285;28;20474;-73
2023/03/22 10:22:40;;;;;;;5.15;1.77;;;13.10;99.90;;;;;;4128069;28;20434;-72
2023/03/22 10:24:45;;;;;;;6.30;1.88;;;13.10;99.90;;;;;;4130053;28;20053;-72
2023/03/22 10:26:47;;;;;;;6.18;1.92;;;13.10;99.90;;;;;;4128212;28;20552;-72
2023/03/22 10:29:27;;;;;;;5.05;1.60;;;13.10;99.90;;;;;;4133126;28;20158;-72
2023/03/22 10:31:29;;;;;;;9.25;2.38;;;13.00;99.90;;;;;;4129142;28;20049;-72
2023/03/22 10:33:36;;;;;;;7.57;1.75;;;13.10;99.90;;;;;;4131259;28;20038;-72
2023/03/22 10:35:37;;;;;;;7.88;2.15;;;13.10;99.90;;;;;;4128518;28;20030;-71
2023/03/22 10:37:39;;;;;;;5.18;1.73;;;13.10;99.90;;;;;;4129433;28;20030;-72
2023/03/22 10:39:45;;;;;;;10.35;2.80;;;13.20;99.90;;;;;;4132126;28;20026;-73
2023/03/22 10:41:46;;;;;;;5.60;1.70;;;13.20;99.90;;;;;;4131093;28;20117;-72
2023/03/22 10:43:51;;;;;;;5.18;1.67;;;13.20;99.90;;;;;;4132680;28;20518;-72